• Join FlightAware (Why Join?)
  • Login
  • US Flag GB Flag 
07:21 EST


 

Airport Tracker/Info


-or-


 

Live Flight TrackerFlight Track Log ✈ AWI3688 ✈ 10-May-2013 ✈ KALB - KPHL

Flight Track Log - Related Links

Times and Time Zones

All times are in EDT time to prevent confusion due to time zone crossing. See the AWI3688 flight status page for this flight to view local times or setup timezone preferences in your user account.

Time Position Orientation Groundspeed Altitude Reporting Facility
EDT Latitude Longitude Course Direction KTS MPH feet Rate Location/Type
16:01 42.7025 -73.8189 196° South 181 208 2,400  Level Boston Center
16:02 42.6958 -73.8583 257° West 215 247 3,800 2,160 Climbing Boston Center
16:02 42.6994 -73.8978 277° West 243 280 4,600 2,100 Climbing Boston Center
16:03 42.7072 -73.9517 281° West 275 316 5,900 2,640 Climbing Boston Center
16:04 42.7095 -74.3414 220° Southwest  Level FlightAware Approximate
16:04 42.7183 -74.0508 279° West 281 323 8,700  Level Boston Center
16:05 42.6313 -74.4295 220° Southwest  Level FlightAware Approximate
16:05 42.7025 -74.1294 255° West 254 292 11,000  Level Boston Center
16:06 42.5544 -74.5195 223° Southwest  Level FlightAware Approximate
16:06 42.6469 -74.2242 231° Southwest 269 310 12,400  Level Boston Center
16:07 42.5978 -74.3017 229° Southwest 303 349 14,300 1,860 Climbing Boston Center
16:08 42.5356 -74.4011 230° Southwest 308 354 16,200 1,500 Climbing Boston Center
16:09 42.4819 -74.4839 229° Southwest 318 366 17,400 1,260 Climbing Boston Center
16:10 42.4156 -74.5858 229° Southwest 328 377 18,800 780 Climbing Boston Center
16:11 42.3617 -74.6739 230° Southwest 334 384 19,000 60 Climbing Boston Center
16:12 42.2531 -74.8444 229° Southwest 345 397 19,000  Level New York Center
16:13 42.1831 -74.9464 227° Southwest 356 410 19,000  Level New York Center
16:14 42.1078 -75.0169 215° Southwest 362 417 19,000  Level New York Center
16:15 42.0175 -75.0950 213° Southwest 367 422 19,000  Level New York Center
16:16 41.9444 -75.1544 211° Southwest 348 400 19,000  Level New York Center
16:17 41.8608 -75.2211 211° Southwest 348 400 19,000 -480 Level New York Center
16:18 41.7706 -75.2931 211° Southwest 353 406 18,100 -1,260 Descending New York Center
16:19 41.6911 -75.3572 211° Southwest 345 397 16,500 -1,620 Descending New York Center
16:20 41.6136 -75.4211 212° Southwest 345 397 14,900 -1,560 Descending New York Center
16:21 41.5450 -75.4744 210° Southwest 340 391 13,400 -1,500 Descending New York Center
16:22 41.4675 -75.5356 211° Southwest 335 386 12,000 -720 Descending New York Center
16:23 41.3878 -75.5992 211° Southwest 321 369 12,000  Level New York Center
16:24 41.3192 -75.6522 210° Southwest 321 369 12,000  Level New York Center
16:25 41.2278 -75.6925 198° South 321 369 12,000 -360 Level New York Center
16:26 41.1447 -75.6892 178° South 327 376 11,300 -900 Descending New York Center
16:27 41.0531 -75.6881 179° South 332 382 10,300 -660 Descending New York Center
16:28 40.9531 -75.6889 180° South 332 382 10,000 -180 Descending New York Center
16:29 40.8592 -75.6878 179° South 333 383 10,000  Level New York Center
16:30 40.7656 -75.6864 179° South 333 383 10,000  Level New York Center
16:31 40.6886 -75.6344 153° Southeast 333 383 10,000  Level New York Center
16:32 40.5958 -75.5567 148° Southeast 348 400 10,000  Level New York Center
16:33 40.5192 -75.4914 147° Southeast 348 400 10,000 -480 Level New York Center
16:34 40.4506 -75.4347 148° Southeast 312 359 9,100 -780 Descending New York Center
16:35 40.3881 -75.3869 150° Southeast 296 341 8,500 -1,200 Descending New York Center
16:36 40.3172 -75.3306 149° Southeast 279 321 6,800 -1,560 Descending New York Center
16:37 40.2478 -75.2906 156° South 279 321 5,400 -1,380 Descending New York Center
16:38 40.1825 -75.2564 158° South 272 313 4,100 -720 Descending New York Center
16:39 40.1067 -75.2244 162° South 267 307 4,000 -120 Descending New York Center
16:40 40.0833 -75.2167 166° South 263 303 4,000  Level Philadelphia TRACON
16:41 40.0167 -75.1833 159° South 265 305 4,000  Level Philadelphia TRACON
16:42 39.9500 -75.1500 159° South 231 266 4,000  Level Philadelphia TRACON
16:43 39.9000 -75.1167 153° Southeast 194 223 4,000 -480 Level Philadelphia TRACON
16:44 39.8500 -75.1000 166° South 182 209 3,100 -600 Descending Philadelphia TRACON
16:45 39.8000 -75.0833 166° South 181 208 3,000 -600 Descending Philadelphia TRACON
16:46 39.7667 -75.0833 180° South 179 206 2,100 -720 Descending Philadelphia TRACON
16:47 39.7667 -75.1500 270° West 181 208 1,600 -300 Descending Philadelphia TRACON
16:48 39.8000 -75.1833 322° Northwest 169 194 1,500 -120 Descending Philadelphia TRACON